Time;durP1;ratioP1;P1;durP2;ratioP2;P2;SDS_P1;SDS_P2;PMS_P1;PMS_P2;Temp;Humidity;BMP_temperature;BMP_pressure;BME280_temperature;BME280_humidity;BME280_pressure;Samples;Min_cycle;Max_cycle;Signal;HPM_P1;HPM_P2
2022/07/06 00:01:33;;;;;;;3.90;1.80;;;;;;;;;;7310245;19;163228;-14
2022/07/06 00:04:05;;;;;;;9.07;1.88;;;;;;;;;;7310113;19;154478;-14
2022/07/06 00:06:36;;;;;;;7.03;2.13;;;;;;;;;;7307187;19;154608;-14
2022/07/06 00:09:09;;;;;;;5.90;2.10;;;;;;;;;;7307045;19;162390;-14
2022/07/06 00:12:01;;;;;;;4.90;1.67;;;;;;;;;;7306873;19;163420;-14
2022/07/06 00:14:32;;;;;;;6.75;1.73;;;;;;;;;;7311839;19;155289;-14
2022/07/06 00:17:05;;;;;;;3.15;1.90;;;;;;;;;;7308291;19;154643;-14
2022/07/06 00:19:37;;;;;;;3.63;1.70;;;;;;;;;;7308117;19;162294;-14
2022/07/06 00:22:08;;;;;;;5.10;1.50;;;;;;;;;;7311817;19;163174;-14
2022/07/06 00:24:39;;;;;;;15.82;2.80;;;;;;;;;;7318370;19;154947;-14
2022/07/06 00:27:13;;;;;;;19.60;4.45;;;;;;;;;;7319444;19;153915;-14
2022/07/06 00:29:45;;;;;;;17.27;6.05;;;;;;;;;;7315090;19;162907;-13
2022/07/06 00:32:16;;;;;;;26.50;8.45;;;;;;;;;;7314444;19;162925;-14
2022/07/06 00:34:48;;;;;;;16.58;5.40;;;;;;;;;;7316536;19;154454;-14
2022/07/06 00:37:19;;;;;;;12.40;5.35;;;;;;;;;;7316907;19;154621;-14
2022/07/06 00:39:50;;;;;;;12.43;3.50;;;;;;;;;;7317655;19;162400;-15
2022/07/06 00:42:25;;;;;;;9.57;3.38;;;;;;;;;;7317927;19;163409;-14
2022/07/06 00:44:56;;;;;;;9.00;3.45;;;;;;;;;;7316779;19;154918;-14
2022/07/06 00:47:28;;;;;;;14.13;3.45;;;;;;;;;;7318550;19;154417;-14
2022/07/06 00:52:47;;;;;;;6.03;2.70;;;;;;;;;;7314434;19;162350;-28
2022/07/06 00:55:20;;;;;;;8.75;3.30;;;;;;;;;;7315894;19;154530;-14
2022/07/06 00:57:54;;;;;;;;;;;;;;;;;;7318113;19;154381;-14
2022/07/06 01:00:28;;;;;;;7.13;3.10;;;;;;;;;;7314157;19;162351;-14
2022/07/06 01:02:59;;;;;;;9.60;3.10;;;;;;;;;;7317734;19;162901;-14
2022/07/06 01:05:31;;;;;;;7.72;3.15;;;;;;;;;;7315160;19;154527;-14
2022/07/06 01:08:03;;;;;;;7.07;2.90;;;;;;;;;;7316934;19;154046;-14
2022/07/06 01:10:34;;;;;;;11.13;3.17;;;;;;;;;;7317265;19;162311;-14
2022/07/06 01:13:09;;;;;;;11.18;3.20;;;;;;;;;;7315696;19;162819;-14
2022/07/06 01:15:41;;;;;;;6.65;3.00;;;;;;;;;;7316751;19;154660;-14
2022/07/06 01:18:14;;;;;;;5.97;2.60;;;;;;;;;;7315211;19;154412;-14
2022/07/06 01:20:51;;;;;;;7.85;2.40;;;;;;;;;;7312867;19;162660;-14
2022/07/06 01:23:22;;;;;;;6.15;2.47;;;;;;;;;;7317117;19;163418;-14
2022/07/06 01:25:58;;;;;;;10.02;2.92;;;;;;;;;;7314444;19;154794;-15
2022/07/06 01:28:29;;;;;;;6.38;2.58;;;;;;;;;;7317116;19;154553;-15
2022/07/06 01:31:00;;;;;;;5.57;2.92;;;;;;;;;;7314741;19;162298;-15
2022/07/06 01:33:32;;;;;;;5.43;2.88;;;;;;;;;;7313831;19;162828;-13
2022/07/06 01:36:07;;;;;;;7.93;2.63;;;;;;;;;;7316535;19;155076;-14
2022/07/06 01:38:47;;;;;;;8.15;2.58;;;;;;;;;;7315033;19;153993;-14
2022/07/06 01:41:18;;;;;;;4.38;2.33;;;;;;;;;;7315342;19;162837;-14
2022/07/06 01:43:50;;;;;;;3.90;2.30;;;;;;;;;;7313220;19;162959;-14
2022/07/06 01:46:25;;;;;;;5.07;2.20;;;;;;;;;;7314850;19;154484;-14
2022/07/06 01:48:56;;;;;;;6.10;2.53;;;;;;;;;;7313928;19;153953;-14
2022/07/06 01:51:31;;;;;;;3.47;2.17;;;;;;;;;;7314230;19;162709;-14
2022/07/06 01:54:03;;;;;;;7.07;2.33;;;;;;;;;;7315233;19;163585;-14
2022/07/06 01:56:34;;;;;;;4.43;2.42;;;;;;;;;;7313426;19;155037;-14
2022/07/06 01:59:07;;;;;;;6.07;2.50;;;;;;;;;;7314197;19;154441;-14
2022/07/06 02:01:40;;;;;;;6.03;2.40;;;;;;;;;;7312671;19;162227;-14
2022/07/06 02:04:11;;;;;;;5.07;1.90;;;;;;;;;;7314494;19;162776;-14
2022/07/06 02:06:46;;;;;;;7.57;2.38;;;;;;;;;;7315247;19;155203;-13
2022/07/06 02:09:17;;;;;;;4.65;2.25;;;;;;;;;;7313712;19;153990;-14
2022/07/06 02:11:49;;;;;;;5.70;2.50;;;;;;;;;;7312437;19;162682;-14
2022/07/06 02:14:20;;;;;;;7.85;1.90;;;;;;;;;;7314221;19;162933;-14
2022/07/06 02:16:52;;;;;;;5.93;2.10;;;;;;;;;;7313403;19;154652;-14
2022/07/06 02:19:24;;;;;;;5.83;2.40;;;;;;;;;;7312574;19;154011;-14
2022/07/06 02:21:58;;;;;;;4.38;2.22;;;;;;;;;;7315716;19;162656;-14
2022/07/06 02:24:29;;;;;;;4.35;2.00;;;;;;;;;;7313593;19;162845;-14
2022/07/06 02:27:01;;;;;;;4.93;2.38;;;;;;;;;;7314240;19;154490;-14
2022/07/06 02:29:32;;;;;;;5.90;2.15;;;;;;;;;;7314666;19;154185;-14
2022/07/06 02:32:05;;;;;;;6.72;2.30;;;;;;;;;;7312944;19;162607;-14
2022/07/06 02:34:39;;;;;;;6.63;2.40;;;;;;;;;;7315504;19;162786;-14
2022/07/06 02:37:13;;;;;;;5.70;2.15;;;;;;;;;;7313145;19;154727;-14
2022/07/06 02:39:45;;;;;;;6.68;2.05;;;;;;;;;;7313307;19;154028;-14
2022/07/06 02:42:16;;;;;;;4.60;2.05;;;;;;;;;;7313888;19;161922;-14
2022/07/06 02:44:48;;;;;;;3.05;1.80;;;;;;;;;;7311900;19;163318;-14
2022/07/06 02:47:19;;;;;;;4.35;1.65;;;;;;;;;;7312757;19;154624;-14
2022/07/06 02:49:51;;;;;;;3.63;2.00;;;;;;;;;;7314254;19;154001;-14
2022/07/06 02:52:25;;;;;;;6.65;1.90;;;;;;;;;;7310716;19;162324;-14
2022/07/06 02:54:57;;;;;;;3.88;2.22;;;;;;;;;;7312237;19;163017;-14
2022/07/06 02:57:28;;;;;;;3.13;2.03;;;;;;;;;;7313131;19;154523;-14
2022/07/06 03:00:00;;;;;;;4.17;2.10;;;;;;;;;;7313176;19;154490;-13
2022/07/06 03:02:34;;;;;;;4.13;1.80;;;;;;;;;;7312569;19;162339;-14
2022/07/06 03:05:06;;;;;;;3.70;2.17;;;;;;;;;;7311222;19;162989;-13
2022/07/06 03:07:40;;;;;;;3.50;2.00;;;;;;;;;;7311772;19;154821;-14
2022/07/06 03:10:12;;;;;;;6.03;1.80;;;;;;;;;;7313487;19;154190;-14
2022/07/06 03:12:43;;;;;;;3.88;1.73;;;;;;;;;;7310583;19;162353;-14
2022/07/06 03:15:15;;;;;;;3.22;1.98;;;;;;;;;;7313249;19;163445;-14
2022/07/06 03:17:49;;;;;;;3.95;1.60;;;;;;;;;;7311050;19;154744;-13
2022/07/06 03:20:20;;;;;;;2.45;1.50;;;;;;;;;;7309607;19;153993;-14
2022/07/06 03:22:57;;;;;;;3.70;1.80;;;;;;;;;;7312682;19;162310;-14
2022/07/06 03:25:28;;;;;;;2.13;1.50;;;;;;;;;;7312732;19;163381;-14
2022/07/06 03:27:59;;;;;;;3.05;1.42;;;;;;;;;;7311303;19;154918;-14
2022/07/06 03:30:31;;;;;;;2.20;1.55;;;;;;;;;;7311451;19;154175;-13
2022/07/06 03:33:02;;;;;;;3.58;1.77;;;;;;;;;;7309844;19;162881;-14
2022/07/06 03:35:33;;;;;;;1.92;1.67;;;;;;;;;;7310938;19;162978;-13
2022/07/06 03:38:09;;;;;;;1.70;1.60;;;;;;;;;;7311374;19;154507;-14
2022/07/06 03:40:43;;;;;;;3.67;1.60;;;;;;;;;;7311169;19;153929;-14
2022/07/06 03:43:15;;;;;;;3.50;1.55;;;;;;;;;;7310862;19;162874;-14
2022/07/06 03:45:50;;;;;;;2.50;1.30;;;;;;;;;;7310596;19;163451;-14
2022/07/06 03:48:24;;;;;;;2.22;1.63;;;;;;;;;;7310991;19;154489;-14
2022/07/06 03:50:57;;;;;;;3.40;1.73;;;;;;;;;;7312565;19;154080;-14
2022/07/06 03:53:31;;;;;;;3.73;1.60;;;;;;;;;;7308832;19;162383;-14
2022/07/06 03:58:47;;;;;;;4.22;1.60;;;;;;;;;;7308039;19;154800;-14
2022/07/06 04:01:21;;;;;;;2.25;1.40;;;;;;;;;;7310127;19;154003;-14
2022/07/06 04:03:53;;;;;;;4.65;1.50;;;;;;;;;;7310047;19;162408;-14
2022/07/06 04:06:25;;;;;;;3.25;1.40;;;;;;;;;;7309773;19;162816;-14
2022/07/06 04:08:59;;;;;;;4.13;1.60;;;;;;;;;;7311881;19;155211;-14
2022/07/06 04:11:31;;;;;;;3.28;1.63;;;;;;;;;;7310094;19;154535;-14
2022/07/06 04:14:02;;;;;;;2.80;1.52;;;;;;;;;;7308120;19;162446;-14
2022/07/06 04:16:33;;;;;;;3.63;1.70;;;;;;;;;;7309903;19;163636;-14
2022/07/06 04:19:06;;;;;;;4.47;1.50;;;;;;;;;;7310248;19;154463;-14
2022/07/06 04:21:38;;;;;;;3.42;1.95;;;;;;;;;;7309992;19;154096;-14
2022/07/06 04:24:15;;;;;;;3.00;1.27;;;;;;;;;;7309827;19;162825;-14
2022/07/06 04:26:46;;;;;;;3.97;1.40;;;;;;;;;;7309262;19;162975;-13
2022/07/06 04:29:20;;;;;;;2.03;1.25;;;;;;;;;;7309457;19;154899;-14
2022/07/06 04:31:52;;;;;;;3.75;1.55;;;;;;;;;;7309296;19;154074;-14
2022/07/06 04:34:23;;;;;;;5.03;1.55;;;;;;;;;;7307397;19;162931;-14
2022/07/06 04:36:54;;;;;;;3.13;1.60;;;;;;;;;;7310394;19;162915;-14
2022/07/06 04:39:30;;;;;;;2.65;1.52;;;;;;;;;;7309665;19;154915;-14
2022/07/06 04:42:01;;;;;;;2.35;1.30;;;;;;;;;;7310675;19;153939;-14
2022/07/06 04:44:33;;;;;;;3.50;1.70;;;;;;;;;;7308589;19;162741;-14
2022/07/06 04:47:07;;;;;;;3.08;1.42;;;;;;;;;;7308855;19;162562;-14
2022/07/06 04:49:38;;;;;;;3.80;1.30;;;;;;;;;;7310901;19;155354;-14
2022/07/06 04:52:10;;;;;;;2.43;1.50;;;;;;;;;;7310635;19;153926;-14
2022/07/06 04:54:44;;;;;;;1.83;1.45;;;;;;;;;;7306524;19;162261;-14
2022/07/06 04:57:17;;;;;;;3.85;1.50;;;;;;;;;;7308413;19;163675;-14
2022/07/06 04:59:49;;;;;;;3.33;1.20;;;;;;;;;;7310233;19;155081;-14
2022/07/06 05:02:20;;;;;;;1.98;1.38;;;;;;;;;;7308730;19;154049;-14
2022/07/06 05:04:53;;;;;;;1.50;1.38;;;;;;;;;;7307836;19;162265;-14
2022/07/06 05:07:33;;;;;;;2.25;1.55;;;;;;;;;;7307749;19;162930;-13
2022/07/06 05:10:10;;;;;;;1.73;1.23;;;;;;;;;;7312553;19;154527;-12
2022/07/06 05:12:44;;;;;;;3.30;1.50;;;;;;;;;;7315340;19;154344;-13
2022/07/06 05:15:17;;;;;;;2.47;1.30;;;;;;;;;;7312216;19;162370;-13
2022/07/06 05:17:49;;;;;;;2.63;1.35;;;;;;;;;;7315153;19;162850;-15
2022/07/06 05:20:21;;;;;;;1.77;1.33;;;;;;;;;;7313298;19;154809;-14
2022/07/06 05:22:52;;;;;;;1.58;1.40;;;;;;;;;;7314762;19;154036;-13
2022/07/06 05:25:32;;;;;;;2.00;1.27;;;;;;;;;;7314573;19;162326;-13
2022/07/06 05:28:04;;;;;;;1.80;1.02;;;;;;;;;;7314359;19;163409;-15
2022/07/06 05:30:35;;;;;;;4.30;1.50;;;;;;;;;;7314697;19;155432;-15
2022/07/06 05:33:08;;;;;;;5.43;1.33;;;;;;;;;;7314955;19;154080;-14
2022/07/06 05:35:39;;;;;;;2.50;1.40;;;;;;;;;;7311880;19;162331;-13
2022/07/06 05:38:21;;;;;;;4.23;1.37;;;;;;;;;;7315614;19;162857;-13
2022/07/06 05:40:55;;;;;;;4.80;1.50;;;;;;;;;;7314639;19;154877;-13
2022/07/06 05:43:27;;;;;;;7.30;1.83;;;;;;;;;;7314554;19;154451;-13
2022/07/06 05:46:00;;;;;;;3.88;1.60;;;;;;;;;;7314034;19;162702;-13
2022/07/06 05:51:19;;;;;;;4.85;1.40;;;;;;;;;;7312807;19;155359;-13
2022/07/06 05:53:54;;;;;;;5.95;1.42;;;;;;;;;;7313250;19;154307;-13
2022/07/06 05:56:29;;;;;;;8.85;1.40;;;;;;;;;;7314130;19;162394;-13
2022/07/06 05:59:03;;;;;;;5.13;1.58;;;;;;;;;;7311850;19;163494;-13
2022/07/06 06:01:35;;;;;;;6.40;1.90;;;;;;;;;;7307767;19;154672;-14
2022/07/06 06:04:12;;;;;;;11.40;2.17;;;;;;;;;;7312042;19;154610;-14
2022/07/06 06:06:44;;;;;;;7.63;1.50;;;;;;;;;;7312066;19;163257;-14
2022/07/06 06:09:15;;;;;;;4.75;1.40;;;;;;;;;;7313528;19;163431;-14
2022/07/06 06:11:49;;;;;;;8.20;1.48;;;;;;;;;;7313070;19;154731;-14
2022/07/06 06:14:20;;;;;;;5.57;1.50;;;;;;;;;;7312963;19;154426;-14
2022/07/06 06:16:52;;;;;;;8.05;1.83;;;;;;;;;;7314542;19;162846;-14
2022/07/06 06:19:23;;;;;;;4.63;1.63;;;;;;;;;;7314077;19;162797;-14
2022/07/06 06:21:54;;;;;;;7.95;1.52;;;;;;;;;;7313961;19;154533;-14
2022/07/06 06:24:28;;;;;;;8.13;2.03;;;;;;;;;;7314794;19;154039;-14
2022/07/06 06:27:02;;;;;;;5.85;1.52;;;;;;;;;;7314703;19;162824;-14
2022/07/06 06:29:33;;;;;;;3.67;1.42;;;;;;;;;;7314219;19;162957;-14
2022/07/06 06:32:05;;;;;;;8.45;1.90;;;;;;;;;;7314730;19;154815;-14
2022/07/06 06:34:39;;;;;;;3.90;1.65;;;;;;;;;;7313768;19;153991;-14
2022/07/06 06:37:15;;;;;;;5.53;1.50;;;;;;;;;;7314031;19;162296;-13
2022/07/06 06:39:45;;;;;;;;;;;;;;;;;;7313482;19;162815;-12
2022/07/06 06:42:19;;;;;;;4.68;1.45;;;;;;;;;;7314307;19;155218;-13
2022/07/06 06:44:52;;;;;;;8.70;1.80;;;;;;;;;;7312596;19;153956;-13
2022/07/06 06:47:23;;;;;;;3.90;1.75;;;;;;;;;;7313804;19;162428;-15
2022/07/06 06:49:57;;;;;;;6.07;1.45;;;;;;;;;;7313805;19;163306;-13
2022/07/06 06:52:31;;;;;;;10.98;1.90;;;;;;;;;;7314150;19;154627;-13
2022/07/06 06:55:13;;;;;;;7.60;1.75;;;;;;;;;;7312481;19;154503;-13
2022/07/06 06:57:47;;;;;;;5.07;1.95;;;;;;;;;;7313784;19;162345;-13
2022/07/06 07:00:19;;;;;;;5.47;1.45;;;;;;;;;;7313333;19;163424;-13
2022/07/06 07:02:50;;;;;;;7.20;1.50;;;;;;;;;;7313723;19;154536;-13
2022/07/06 07:05:22;;;;;;;4.60;1.65;;;;;;;;;;7313538;19;154367;-13
2022/07/06 07:07:54;;;;;;;6.75;1.98;;;;;;;;;;7312613;19;162732;-13
2022/07/06 07:10:29;;;;;;;5.30;1.58;;;;;;;;;;7313318;19;163064;-13
2022/07/06 07:13:06;;;;;;;6.43;1.83;;;;;;;;;;7313644;19;154494;-13
2022/07/06 07:15:40;;;;;;;5.88;1.98;;;;;;;;;;7312110;19;153934;-14
2022/07/06 07:18:15;;;;;;;5.50;1.95;;;;;;;;;;7312775;19;162829;-14
2022/07/06 07:20:46;;;;;;;5.93;1.30;;;;;;;;;;7310824;19;163200;-14
2022/07/06 07:23:22;;;;;;;8.68;1.60;;;;;;;;;;7311714;19;154492;-14
2022/07/06 07:25:54;;;;;;;3.33;1.48;;;;;;;;;;7313153;19;154098;-14
2022/07/06 07:28:28;;;;;;;8.18;1.73;;;;;;;;;;7312569;19;162279;-14
2022/07/06 07:31:00;;;;;;;4.70;1.70;;;;;;;;;;7312720;19;162869;-13
2022/07/06 07:33:31;;;;;;;4.70;1.30;;;;;;;;;;7310843;19;154458;-14
2022/07/06 07:36:02;;;;;;;6.72;1.55;;;;;;;;;;7311332;19;154144;-14
2022/07/06 07:38:33;;;;;;;6.50;1.92;;;;;;;;;;7312375;19;162396;-13
2022/07/06 07:41:06;;;;;;;6.15;1.67;;;;;;;;;;7312195;19;162870;-13
2022/07/06 07:43:39;;;;;;;10.33;2.10;;;;;;;;;;7310753;19;154899;-14
2022/07/06 07:46:11;;;;;;;6.15;1.75;;;;;;;;;;7312553;19;154385;-14
2022/07/06 07:48:42;;;;;;;7.32;1.95;;;;;;;;;;7312211;19;162269;-15
2022/07/06 07:51:14;;;;;;;7.10;1.60;;;;;;;;;;7310583;19;163332;-15
2022/07/06 07:53:46;;;;;;;6.18;1.65;;;;;;;;;;7312032;19;154529;-15
2022/07/06 07:56:17;;;;;;;4.35;1.90;;;;;;;;;;7310752;19;154043;-15
2022/07/06 07:58:51;;;;;;;6.43;1.40;;;;;;;;;;7312103;19;162728;-14
2022/07/06 08:01:26;;;;;;;3.83;1.50;;;;;;;;;;7310376;19;162830;-14
2022/07/06 08:03:58;;;;;;;7.15;1.67;;;;;;;;;;7312067;19;155085;-14
2022/07/06 08:06:29;;;;;;;5.13;1.80;;;;;;;;;;7312107;19;154423;-15
2022/07/06 08:09:02;;;;;;;6.07;1.83;;;;;;;;;;7310210;19;162394;-14
2022/07/06 08:11:35;;;;;;;6.65;1.58;;;;;;;;;;7310789;19;162803;-15
2022/07/06 08:14:10;;;;;;;4.55;1.33;;;;;;;;;;7311688;19;154531;-16
2022/07/06 08:16:41;;;;;;;4.60;1.55;;;;;;;;;;7309859;19;154116;-15
2022/07/06 08:19:14;;;;;;;6.28;1.90;;;;;;;;;;7309494;19;162751;-15
2022/07/06 08:21:46;;;;;;;4.32;1.70;;;;;;;;;;7311125;19;162822;-15
2022/07/06 08:24:20;;;;;;;9.77;1.90;;;;;;;;;;7311775;19;154924;-14
2022/07/06 08:26:57;;;;;;;9.02;1.85;;;;;;;;;;7311400;19;154074;-15
2022/07/06 08:29:35;;;;;;;6.13;1.63;;;;;;;;;;7311370;19;163263;-15
2022/07/06 08:32:07;;;;;;;3.45;1.55;;;;;;;;;;7311386;19;162879;-15
2022/07/06 08:34:46;;;;;;;4.90;1.40;;;;;;;;;;7309539;19;154926;-15
2022/07/06 08:37:24;;;;;;;4.22;1.30;;;;;;;;;;7309153;19;153939;-16
2022/07/06 08:39:55;;;;;;;5.68;1.52;;;;;;;;;;7310629;19;163457;-15
2022/07/06 08:42:32;;;;;;;4.43;1.58;;;;;;;;;;7310923;19;163221;-15
2022/07/06 08:45:08;;;;;;;8.45;1.77;;;;;;;;;;7317180;19;154802;-15
2022/07/06 08:47:44;;;;;;;4.25;1.65;;;;;;;;;;7317714;19;154111;-15
2022/07/06 08:50:20;;;;;;;7.38;1.70;;;;;;;;;;7317243;19;162249;-16
2022/07/06 08:52:52;;;;;;;7.28;1.95;;;;;;;;;;7317258;19;163409;-15
2022/07/06 08:55:23;;;;;;;6.15;1.73;;;;;;;;;;7316090;19;155023;-14
2022/07/06 08:57:56;;;;;;;10.63;1.98;;;;;;;;;;7313872;19;154013;-15
2022/07/06 09:00:30;;;;;;;8.82;2.13;;;;;;;;;;7316890;19;162409;-15
2022/07/06 09:03:03;;;;;;;7.10;1.75;;;;;;;;;;7316729;19;162925;-15
2022/07/06 09:05:37;;;;;;;2.97;1.50;;;;;;;;;;7317750;19;155027;-15
2022/07/06 09:08:09;;;;;;;4.80;1.70;;;;;;;;;;7317294;19;154560;-15
2022/07/06 09:10:41;;;;;;;5.10;1.52;;;;;;;;;;7316719;19;162676;-15
2022/07/06 09:13:12;;;;;;;6.90;2.00;;;;;;;;;;7315077;19;162965;-14
2022/07/06 09:15:47;;;;;;;8.32;1.65;;;;;;;;;;7316951;19;154988;-15
2022/07/06 09:18:18;;;;;;;11.88;2.50;;;;;;;;;;7314353;19;154465;-15
2022/07/06 09:20:49;;;;;;;7.10;2.33;;;;;;;;;;7314483;19;162873;-27
2022/07/06 09:23:21;;;;;;;9.65;1.90;;;;;;;;;;7316271;19;163242;-16
2022/07/06 09:25:52;;;;;;;8.20;2.35;;;;;;;;;;7316636;19;154870;-14
2022/07/06 09:28:24;;;;;;;8.43;1.58;;;;;;;;;;7316791;19;154003;-14
2022/07/06 09:31:09;;;;;;;9.57;2.17;;;;;;;;;;7315920;19;162692;-14
2022/07/06 09:33:56;;;;;;;7.53;1.55;;;;;;;;;;7314802;19;163178;-14
2022/07/06 09:36:41;;;;;;;8.07;2.20;;;;;;;;;;7316985;19;154426;-14
2022/07/06 09:39:23;;;;;;;7.90;1.60;;;;;;;;;;7316141;19;154002;-14
2022/07/06 09:41:56;;;;;;;7.65;1.90;;;;;;;;;;7314598;19;162212;-14
2022/07/06 09:44:28;;;;;;;;;;;;;;;;;;7314712;19;162885;-14
2022/07/06 09:47:04;;;;;;;6.03;1.65;;;;;;;;;;7315923;19;154967;-14
2022/07/06 09:49:36;;;;;;;3.53;1.25;;;;;;;;;;7315870;19;154023;-14
2022/07/06 09:52:10;;;;;;;6.65;1.67;;;;;;;;;;7314950;19;162337;-14
2022/07/06 09:54:42;;;;;;;3.40;1.50;;;;;;;;;;7314872;19;162859;-14
2022/07/06 09:57:13;;;;;;;10.65;1.73;;;;;;;;;;7314851;19;154599;-14
2022/07/06 09:59:45;;;;;;;11.05;1.88;;;;;;;;;;7315497;19;153928;-15
2022/07/06 10:02:19;;;;;;;9.38;1.92;;;;;;;;;;7315040;19;162610;-15
2022/07/06 10:04:52;;;;;;;4.70;1.52;;;;;;;;;;7314908;19;162792;-15
2022/07/06 10:07:26;;;;;;;7.00;1.52;;;;;;;;;;7313932;19;154931;-15
2022/07/06 10:09:58;;;;;;;4.32;1.98;;;;;;;;;;7315181;19;154067;-15
2022/07/06 10:12:30;;;;;;;3.90;1.38;;;;;;;;;;7315017;19;162843;-15
2022/07/06 10:15:02;;;;;;;6.20;1.52;;;;;;;;;;7314490;19;163269;-13
2022/07/06 10:17:36;;;;;;;6.27;1.90;;;;;;;;;;7313903;19;155030;-14
2022/07/06 10:20:09;;;;;;;3.78;1.52;;;;;;;;;;7313021;19;153948;-14
2022/07/06 10:22:41;;;;;;;5.22;2.63;;;;;;;;;;7314583;19;162840;-14
2022/07/06 10:25:13;;;;;;;7.07;1.50;;;;;;;;;;7312865;19;162888;-13
2022/07/06 10:27:46;;;;;;;2.57;1.57;;;;;;;;;;7314726;19;154538;-14
2022/07/06 10:30:18;;;;;;;6.13;1.65;;;;;;;;;;7314716;19;154325;-14
2022/07/06 10:32:54;;;;;;;6.30;1.27;;;;;;;;;;7314022;19;162701;-14
2022/07/06 10:35:25;;;;;;;6.05;1.65;;;;;;;;;;7314328;19;163307;-14
2022/07/06 10:38:07;;;;;;;7.45;1.30;;;;;;;;;;7313264;19;154944;-14
2022/07/06 10:43:25;;;;;;;3.70;1.77;;;;;;;;;;7313674;19;162238;-14
2022/07/06 10:45:56;;;;;;;9.10;2.00;;;;;;;;;;7313834;19;163282;-14
2022/07/06 10:48:37;;;;;;;4.30;2.28;;;;;;;;;;7314033;19;156002;-14
2022/07/06 10:51:09;;;;;;;7.97;1.88;;;;;;;;;;7314296;19;153880;-14
2022/07/06 10:53:44;;;;;;;3.38;1.20;;;;;;;;;;7311872;19;162678;-14
2022/07/06 10:56:15;;;;;;;8.52;2.00;;;;;;;;;;7313251;19;162871;-14
2022/07/06 10:58:50;;;;;;;6.75;1.67;;;;;;;;;;7311421;19;154870;-14
2022/07/06 11:01:23;;;;;;;16.05;1.65;;;;;;;;;;7312537;19;154266;-14
2022/07/06 11:04:09;;;;;;;5.70;1.45;;;;;;;;;;7312126;19;162772;-14
2022/07/06 11:06:42;;;;;;;5.53;1.90;;;;;;;;;;7311430;19;162821;-14
2022/07/06 11:09:15;;;;;;;6.07;1.77;;;;;;;;;;7310623;19;155166;-15
2022/07/06 11:11:48;;;;;;;3.63;1.40;;;;;;;;;;7312651;19;153914;-15
2022/07/06 11:14:20;;;;;;;3.33;1.30;;;;;;;;;;7311631;19;162768;-15
2022/07/06 11:17:05;;;;;;;3.63;1.40;;;;;;;;;;7309550;19;133940;-15
2022/07/06 11:19:39;;;;;;;7.07;1.52;;;;;;;;;;7309856;19;154823;-15
2022/07/06 11:22:12;;;;;;;2.80;1.40;;;;;;;;;;7310587;19;154562;-14
2022/07/06 11:24:44;;;;;;;5.07;1.45;;;;;;;;;;7312822;19;162251;-15
2022/07/06 11:27:17;;;;;;;6.37;1.20;;;;;;;;;;7312543;19;163404;-14
2022/07/06 11:29:50;;;;;;;3.47;1.20;;;;;;;;;;7311312;19;154944;-15
2022/07/06 11:32:27;;;;;;;4.53;1.50;;;;;;;;;;7312120;19;154000;-15
2022/07/06 11:35:01;;;;;;;7.30;1.55;;;;;;;;;;7312664;19;162721;-15
2022/07/06 11:37:32;;;;;;;3.85;1.50;;;;;;;;;;7312264;19;162815;-15
2022/07/06 11:40:09;;;;;;;4.63;1.67;;;;;;;;;;7312753;19;154534;-15
2022/07/06 11:42:41;;;;;;;5.25;1.70;;;;;;;;;;7311982;19;154323;-14
2022/07/06 11:45:13;;;;;;;3.25;1.30;;;;;;;;;;7311838;19;162241;-15
2022/07/06 11:47:44;;;;;;;6.05;1.50;;;;;;;;;;7311436;19;162816;-15
2022/07/06 11:50:24;;;;;;;6.05;1.55;;;;;;;;;;7312505;19;154781;-15
2022/07/06 11:52:56;;;;;;;1.65;1.20;;;;;;;;;;7312087;19;153950;-15
2022/07/06 11:55:27;;;;;;;2.15;1.23;;;;;;;;;;7312159;19;162231;-15
2022/07/06 11:58:00;;;;;;;7.07;1.92;;;;;;;;;;7310818;19;163231;-15
2022/07/06 12:00:31;;;;;;;3.95;1.25;;;;;;;;;;7310839;19;154076;-14
2022/07/06 12:03:04;;;;;;;3.85;1.42;;;;;;;;;;7311270;19;154653;-15
2022/07/06 12:05:38;;;;;;;1.30;1.20;;;;;;;;;;7311355;19;162841;-13
2022/07/06 12:08:09;;;;;;;3.90;1.13;;;;;;;;;;7311307;19;162814;-13
2022/07/06 12:10:40;;;;;;;3.80;1.25;;;;;;;;;;7311895;19;155129;-13
2022/07/06 12:13:11;;;;;;;3.97;1.30;;;;;;;;;;7311230;19;153940;-13
2022/07/06 12:15:43;;;;;;;2.25;1.10;;;;;;;;;;7309342;19;162377;-13
2022/07/06 12:18:14;;;;;;;2.47;1.40;;;;;;;;;;7307410;19;162801;-14
2022/07/06 12:20:48;;;;;;;4.70;1.30;;;;;;;;;;7306828;19;154476;-15
2022/07/06 12:23:20;;;;;;;3.03;1.40;;;;;;;;;;7309889;19;153986;-15
2022/07/06 12:25:57;;;;;;;4.07;1.63;;;;;;;;;;7307943;19;162289;-15
2022/07/06 12:28:28;;;;;;;2.97;1.40;;;;;;;;;;7308913;19;162861;-13
2022/07/06 12:30:59;;;;;;;6.38;1.73;;;;;;;;;;7309220;19;154871;-13
2022/07/06 12:33:34;;;;;;;3.72;1.25;;;;;;;;;;7311130;19;153927;-14
2022/07/06 12:36:16;;;;;;;5.45;1.38;;;;;;;;;;7308967;19;162306;-14
2022/07/06 12:38:49;;;;;;;4.13;1.02;;;;;;;;;;7309917;19;162794;-15
2022/07/06 12:41:38;;;;;;;2.60;1.38;;;;;;;;;;7310462;19;154433;-15
2022/07/06 12:44:11;;;;;;;3.83;1.50;;;;;;;;;;7310706;19;153936;-15
2022/07/06 12:46:44;;;;;;;2.80;1.10;;;;;;;;;;7307732;19;162271;-15
2022/07/06 12:49:18;;;;;;;4.13;1.10;;;;;;;;;;7309632;19;162870;-15
2022/07/06 12:52:00;;;;;;;2.17;1.48;;;;;;;;;;7308627;19;154743;-15
2022/07/06 12:54:33;;;;;;;5.27;1.40;;;;;;;;;;7309961;19;153901;-15
2022/07/06 12:57:15;;;;;;;1.98;1.30;;;;;;;;;;7309578;19;162777;-15
2022/07/06 12:59:48;;;;;;;2.20;1.20;;;;;;;;;;7308536;19;163197;-15
2022/07/06 13:02:25;;;;;;;3.60;1.40;;;;;;;;;;7310121;19;154545;-15
2022/07/06 13:05:17;;;;;;;3.13;1.10;;;;;;;;;;7309839;19;154078;-16
2022/07/06 13:07:51;;;;;;;4.80;1.40;;;;;;;;;;7307679;19;162793;-15
2022/07/06 13:10:23;;;;;;;3.15;1.42;;;;;;;;;;7309913;19;163375;-13
2022/07/06 13:12:56;;;;;;;5.63;1.48;;;;;;;;;;7309873;19;154488;-15
2022/07/06 13:15:27;;;;;;;4.03;1.33;;;;;;;;;;7308119;19;154457;-15
2022/07/06 13:18:00;;;;;;;4.78;1.48;;;;;;;;;;7309378;19;162731;-15
2022/07/06 13:20:34;;;;;;;4.43;1.35;;;;;;;;;;7304960;19;162813;-14
2022/07/06 13:23:08;;;;;;;12.10;1.35;;;;;;;;;;7309912;19;154510;-15
2022/07/06 13:25:40;;;;;;;2.78;1.10;;;;;;;;;;7309115;19;154060;-15
2022/07/06 13:28:11;;;;;;;5.53;1.15;;;;;;;;;;7309058;19;162149;-15
2022/07/06 13:30:42;;;;;;;3.22;1.13;;;;;;;;;;7311271;19;162751;-15
2022/07/06 13:33:13;;;;;;;4.72;1.30;;;;;;;;;;7315728;19;154584;-15
2022/07/06 13:35:44;;;;;;;1.73;1.40;;;;;;;;;;7315055;19;154000;-15
2022/07/06 13:38:18;;;;;;;7.22;1.63;;;;;;;;;;7313878;19;162686;-15
2022/07/06 13:40:50;;;;;;;2.03;1.10;;;;;;;;;;7313206;19;162936;-15
2022/07/06 13:43:21;;;;;;;4.13;1.05;;;;;;;;;;7315927;19;154508;-15
2022/07/06 13:45:52;;;;;;;5.85;1.25;;;;;;;;;;7315848;19;153620;-15
2022/07/06 13:48:27;;;;;;;8.70;1.13;;;;;;;;;;7315270;19;162820;-15
2022/07/06 13:50:58;;;;;;;3.67;1.17;;;;;;;;;;7315031;19;163456;-15
2022/07/06 13:53:33;;;;;;;3.15;1.60;;;;;;;;;;7312785;19;155052;-15
2022/07/06 13:56:04;;;;;;;4.38;1.50;;;;;;;;;;7316026;19;153927;-15
2022/07/06 13:58:35;;;;;;;5.15;1.27;;;;;;;;;;7314595;19;162264;-15
2022/07/06 14:01:10;;;;;;;3.90;1.30;;;;;;;;;;7307950;19;163508;-15
2022/07/06 14:03:44;;;;;;;2.45;1.42;;;;;;;;;;7315630;19;154506;-15
2022/07/06 14:06:16;;;;;;;2.83;1.48;;;;;;;;;;7314021;19;153939;-15
2022/07/06 14:08:51;;;;;;;4.35;1.60;;;;;;;;;;7313876;19;162310;-15
2022/07/06 14:11:22;;;;;;;6.38;1.83;;;;;;;;;;7313144;19;163380;-15
2022/07/06 14:13:53;;;;;;;5.40;2.10;;;;;;;;;;7313628;19;154462;-14
2022/07/06 14:16:25;;;;;;;12.38;2.05;;;;;;;;;;7313225;19;154368;-14
2022/07/06 14:18:56;;;;;;;4.43;1.75;;;;;;;;;;7312867;19;162188;-14
2022/07/06 14:21:27;;;;;;;7.25;2.28;;;;;;;;;;7310448;19;162780;-14
2022/07/06 14:24:01;;;;;;;4.78;1.92;;;;;;;;;;7313676;19;154606;-14
2022/07/06 14:26:33;;;;;;;9.30;1.85;;;;;;;;;;7313037;19;154363;-14
2022/07/06 14:29:04;;;;;;;6.75;2.20;;;;;;;;;;7313039;19;162236;-14
2022/07/06 14:31:35;;;;;;;5.03;2.03;;;;;;;;;;7311615;19;162888;-14
2022/07/06 14:34:06;;;;;;;7.97;2.05;;;;;;;;;;7312892;19;155909;-14
2022/07/06 14:36:39;;;;;;;8.35;2.00;;;;;;;;;;7312793;19;154453;-14
2022/07/06 14:39:12;;;;;;;9.15;2.08;;;;;;;;;;7313498;19;162309;-15
2022/07/06 14:41:44;;;;;;;10.80;2.33;;;;;;;;;;7309843;19;163346;-14
2022/07/06 14:44:15;;;;;;;5.38;1.83;;;;;;;;;;7312664;19;154560;-14
2022/07/06 14:46:46;;;;;;;7.07;2.17;;;;;;;;;;7312488;19;154298;-14
2022/07/06 14:49:17;;;;;;;8.95;2.30;;;;;;;;;;7312113;19;162722;-14
2022/07/06 14:51:51;;;;;;;17.10;2.55;;;;;;;;;;7310921;19;163239;-14
2022/07/06 14:54:25;;;;;;;7.00;2.33;;;;;;;;;;7312402;19;154547;-14
2022/07/06 14:56:56;;;;;;;3.70;1.95;;;;;;;;;;7312397;19;154057;-14
2022/07/06 14:59:28;;;;;;;8.85;2.15;;;;;;;;;;7311954;19;162774;-14
2022/07/06 15:01:59;;;;;;;8.50;2.35;;;;;;;;;;7308024;19;163186;-14
2022/07/06 15:04:30;;;;;;;6.75;1.70;;;;;;;;;;7312067;19;154859;-14
2022/07/06 15:07:01;;;;;;;8.40;2.40;;;;;;;;;;7311863;19;153952;-14
2022/07/06 15:09:36;;;;;;;4.72;2.20;;;;;;;;;;7311809;19;162335;-14
2022/07/06 15:12:08;;;;;;;8.27;2.42;;;;;;;;;;7311701;19;163322;-12
2022/07/06 15:14:39;;;;;;;9.48;3.08;;;;;;;;;;7312095;19;154593;-12
2022/07/06 15:17:11;;;;;;;5.70;1.90;;;;;;;;;;7308846;19;154687;-13